Time;durP1;ratioP1;P1;durP2;ratioP2;P2;SDS_P1;SDS_P2;PMS_P1;PMS_P2;Temp;Humidity;BMP_temperature;BMP_pressure;BME280_temperature;BME280_humidity;BME280_pressure;Samples;Min_cycle;Max_cycle;Signal;HPM_P1;HPM_P2
2021/12/16 00:01:44;;;;;;;5.27;3.60;;;;;;;;;;5079510;28;20451;-68
2021/12/16 00:06:50;;;;;;;4.83;3.20;;;;;;;;;;5079263;28;20500;-68
2021/12/16 00:09:19;;;;;;;4.63;2.80;;;;;;;;;;5089740;28;20451;-68
2021/12/16 00:29:03;;;;;;;4.43;3.13;;;;;;;;;;5079074;28;20551;-68
2021/12/16 00:31:45;;;;;;;5.33;3.93;;;;;;;;;;5078771;28;20567;-67
2021/12/16 00:34:13;;;;;;;4.70;3.60;;;;;;;;;;5078487;28;20444;-67
2021/12/16 00:36:44;;;;;;;6.93;3.93;;;;;;;;;;5078477;28;20448;-67
2021/12/16 00:39:13;;;;;;;4.07;3.50;;;;;;;;;;5082071;28;20480;-67
2021/12/16 00:41:43;;;;;;;8.53;3.77;;;;;;;;;;5078348;28;20817;-67
2021/12/16 00:44:21;;;;;;;4.57;3.67;;;;;;;;;;5078169;28;21105;-67
2021/12/16 00:47:23;;;;;;;5.60;3.50;;;;;;;;;;5078402;28;20452;-66
2021/12/16 00:49:52;;;;;;;6.90;4.53;;;;;;;;;;5077916;28;20468;-67
2021/12/16 00:55:19;;;;;;;6.43;4.60;;;;;;;;;;5078207;28;20451;-67
2021/12/16 00:57:49;;;;;;;5.83;4.63;;;;;;;;;;5078172;28;20448;-67
2021/12/16 01:00:18;;;;;;;6.60;4.47;;;;;;;;;;5078304;28;20440;-67
2021/12/16 01:03:09;;;;;;;5.37;4.53;;;;;;;;;;5078144;28;20440;-67
2021/12/16 01:08:42;;;;;;;6.53;4.53;;;;;;;;;;5074219;28;20556;-67
2021/12/16 01:33:50;;;;;;;7.83;4.80;;;;;;;;;;5004379;28;20526;-67
2021/12/16 01:36:34;;;;;;;7.10;4.90;;;;;;;;;;5071881;28;20450;-67
2021/12/16 01:47:45;;;;;;;6.63;5.10;;;;;;;;;;5097947;28;20454;-67
2021/12/16 01:50:18;;;;;;;7.73;5.30;;;;;;;;;;5085812;28;20443;-67
2021/12/16 01:53:13;;;;;;;8.90;6.33;;;;;;;;;;5097523;28;20479;-67
2021/12/16 01:55:51;;;;;;;5.23;4.47;;;;;;;;;;5097672;28;20449;-67
2021/12/16 01:58:24;;;;;;;7.07;4.60;;;;;;;;;;5097589;28;20463;-67
2021/12/16 02:00:58;;;;;;;8.03;5.33;;;;;;;;;;5097818;28;20950;-67
2021/12/16 02:03:38;;;;;;;7.10;4.87;;;;;;;;;;5096249;28;20452;-67
2021/12/16 02:06:14;;;;;;;7.80;5.10;;;;;;;;;;5097593;28;20470;-67
2021/12/16 02:08:42;;;;;;;5.80;4.90;;;;;;;;;;5097476;28;20546;-67
2021/12/16 02:11:24;;;;;;;8.20;5.10;;;;;;;;;;5097332;28;20447;-67
2021/12/16 02:27:53;;;;;;;11.03;5.00;;;;;;;;;;5097321;28;20450;-67
2021/12/16 02:36:29;;;;;;;8.23;6.10;;;;;;;;;;5040063;28;20448;-67
2021/12/16 02:39:00;;;;;;;10.07;6.60;;;;;;;;;;5081663;28;20559;-67
2021/12/16 02:41:28;;;;;;;7.60;5.73;;;;;;;;;;5080821;28;20451;-67
2021/12/16 02:44:23;;;;;;;8.00;5.47;;;;;;;;;;5080432;28;20440;-67
2021/12/16 02:49:39;;;;;;;7.70;4.97;;;;;;;;;;5087889;28;20471;-66
2021/12/16 02:52:07;;;;;;;7.40;5.27;;;;;;;;;;5080557;28;20995;-67
2021/12/16 02:54:36;;;;;;;9.60;6.03;;;;;;;;;;5080696;28;20451;-67
2021/12/16 02:57:05;;;;;;;9.47;5.93;;;;;;;;;;5086672;28;20894;-67
2021/12/16 02:59:33;;;;;;;9.47;6.27;;;;;;;;;;5100657;28;20551;-67
2021/12/16 03:02:06;;;;;;;9.40;5.57;;;;;;;;;;5099732;28;20444;-67
2021/12/16 03:04:34;;;;;;;8.53;5.53;;;;;;;;;;5089267;28;20451;-67
2021/12/16 03:07:04;;;;;;;13.07;7.57;;;;;;;;;;5080333;28;20875;-67
2021/12/16 03:10:05;;;;;;;9.53;5.97;;;;;;;;;;5080422;28;20468;-67
2021/12/16 03:12:55;;;;;;;8.53;6.00;;;;;;;;;;5090065;28;20591;-67
2021/12/16 03:15:34;;;;;;;11.73;6.37;;;;;;;;;;5100352;28;20838;-67
2021/12/16 03:18:10;;;;;;;9.20;7.07;;;;;;;;;;5100119;28;21658;-67
2021/12/16 03:20:43;;;;;;;12.07;7.07;;;;;;;;;;5100548;28;20526;-67
2021/12/16 03:23:28;;;;;;;10.07;6.27;;;;;;;;;;5089013;28;20436;-67
2021/12/16 03:26:22;;;;;;;12.73;6.17;;;;;;;;;;5100220;28;20528;-67
2021/12/16 03:34:32;;;;;;;10.87;6.27;;;;;;;;;;5080056;28;20437;-67
2021/12/16 03:37:15;;;;;;;13.77;6.93;;;;;;;;;;5079699;28;20451;-67
2021/12/16 03:39:45;;;;;;;10.83;6.10;;;;;;;;;;5080237;28;20464;-67
2021/12/16 03:42:17;;;;;;;11.83;6.93;;;;;;;;;;5097356;28;20467;-67
2021/12/16 03:44:53;;;;;;;9.97;6.50;;;;;;;;;;5100182;28;20449;-67
2021/12/16 03:47:23;;;;;;;10.93;6.60;;;;;;;;;;5099825;28;20469;-67
2021/12/16 03:49:52;;;;;;;12.40;7.03;;;;;;;;;;5084856;28;20538;-67
2021/12/16 03:52:20;;;;;;;11.67;6.50;;;;;;;;;;5079557;28;21048;-68
2021/12/16 03:54:50;;;;;;;10.43;5.87;;;;;;;;;;5079159;28;20944;-67
2021/12/16 03:57:20;;;;;;;11.97;7.00;;;;;;;;;;5079231;28;20539;-67
2021/12/16 03:59:51;;;;;;;9.37;6.00;;;;;;;;;;5079146;28;21000;-67
2021/12/16 04:02:20;;;;;;;10.70;5.90;;;;;;;;;;5079435;28;20444;-67
2021/12/16 04:04:51;;;;;;;8.53;6.70;;;;;;;;;;5078889;28;20801;-67
2021/12/16 04:07:20;;;;;;;9.27;6.73;;;;;;;;;;5079342;28;20487;-67
2021/12/16 04:09:49;;;;;;;9.47;6.43;;;;;;;;;;5079057;28;20460;-67
2021/12/16 04:12:20;;;;;;;10.50;6.60;;;;;;;;;;5091383;28;21238;-67
2021/12/16 04:14:51;;;;;;;9.57;6.40;;;;;;;;;;5087904;28;20448;-67
2021/12/16 04:17:20;;;;;;;12.60;6.63;;;;;;;;;;5086147;28;20528;-67
2021/12/16 04:19:49;;;;;;;10.60;6.87;;;;;;;;;;5088788;28;21074;-67
2021/12/16 04:22:18;;;;;;;11.70;6.37;;;;;;;;;;5082646;28;20450;-67
2021/12/16 04:24:47;;;;;;;10.33;6.93;;;;;;;;;;5081261;28;20439;-67
2021/12/16 04:27:15;;;;;;;9.70;6.00;;;;;;;;;;5082078;28;20451;-67
2021/12/16 04:29:43;;;;;;;9.97;6.30;;;;;;;;;;5091412;28;20451;-67
2021/12/16 04:32:13;;;;;;;11.40;6.73;;;;;;;;;;5078377;28;20443;-67
2021/12/16 04:34:41;;;;;;;11.90;6.40;;;;;;;;;;5091778;28;20922;-67
2021/12/16 04:37:09;;;;;;;9.27;5.63;;;;;;;;;;5078504;28;20472;-68
2021/12/16 04:39:39;;;;;;;11.67;6.10;;;;;;;;;;5092595;28;20458;-67
2021/12/16 04:42:07;;;;;;;11.03;6.97;;;;;;;;;;5090946;28;20865;-67
2021/12/16 04:44:35;;;;;;;8.77;6.17;;;;;;;;;;5089214;28;20431;-67
2021/12/16 04:47:05;;;;;;;8.67;6.00;;;;;;;;;;5090688;28;20443;-67
2021/12/16 04:49:35;;;;;;;11.23;6.87;;;;;;;;;;5091152;28;20467;-67
2021/12/16 04:52:05;;;;;;;12.17;6.57;;;;;;;;;;5089031;28;20435;-67
2021/12/16 04:54:33;;;;;;;11.57;6.53;;;;;;;;;;5089017;28;20483;-67
2021/12/16 04:57:01;;;;;;;11.67;7.03;;;;;;;;;;5089258;28;20432;-67
2021/12/16 04:59:31;;;;;;;9.23;6.33;;;;;;;;;;5090350;28;20455;-67
2021/12/16 05:02:01;;;;;;;9.20;6.70;;;;;;;;;;5088193;28;20443;-67
2021/12/16 05:04:29;;;;;;;10.67;6.00;;;;;;;;;;5088478;28;20468;-67
2021/12/16 05:06:58;;;;;;;8.10;6.23;;;;;;;;;;5089958;28;20432;-67
2021/12/16 05:12:13;;;;;;;12.27;6.97;;;;;;;;;;5096135;28;21038;-67
2021/12/16 05:14:41;;;;;;;9.07;6.00;;;;;;;;;;5077781;28;20487;-67
2021/12/16 05:17:22;;;;;;;8.77;6.40;;;;;;;;;;5077954;28;20440;-67
2021/12/16 05:19:51;;;;;;;9.70;6.23;;;;;;;;;;5078030;28;20470;-67
2021/12/16 05:25:10;;;;;;;6.27;4.70;;;;;;;;;;5077659;28;20448;-67
2021/12/16 05:27:38;;;;;;;9.07;5.67;;;;;;;;;;5079726;28;20523;-67
2021/12/16 05:30:07;;;;;;;9.47;5.77;;;;;;;;;;5081606;28;20448;-67
2021/12/16 05:32:35;;;;;;;11.07;5.80;;;;;;;;;;5077431;28;20458;-67
2021/12/16 05:35:03;;;;;;;10.80;5.83;;;;;;;;;;5077068;28;21003;-67
2021/12/16 05:37:32;;;;;;;12.30;6.37;;;;;;;;;;5077462;28;20472;-67
2021/12/16 05:40:00;;;;;;;8.33;5.83;;;;;;;;;;5078473;28;20460;-66
2021/12/16 05:42:28;;;;;;;8.27;5.80;;;;;;;;;;5077595;28;20441;-67
2021/12/16 05:44:56;;;;;;;9.63;5.67;;;;;;;;;;5077298;28;20852;-67
2021/12/16 05:47:24;;;;;;;9.63;5.90;;;;;;;;;;5078483;28;20531;-67
2021/12/16 05:49:52;;;;;;;9.70;5.97;;;;;;;;;;5081067;28;20495;-66
2021/12/16 05:52:20;;;;;;;11.20;5.67;;;;;;;;;;5077206;28;20456;-67
2021/12/16 05:54:50;;;;;;;7.00;5.20;;;;;;;;;;5077219;28;20484;-67
2021/12/16 05:57:18;;;;;;;8.93;5.90;;;;;;;;;;5077431;28;20451;-67
2021/12/16 05:59:46;;;;;;;9.33;6.07;;;;;;;;;;5077464;28;20468;-67
2021/12/16 06:02:14;;;;;;;9.20;5.13;;;;;;;;;;5077610;28;20527;-67
2021/12/16 06:04:42;;;;;;;6.70;5.10;;;;;;;;;;5077464;28;20444;-67
2021/12/16 06:07:10;;;;;;;6.30;4.83;;;;;;;;;;5077626;28;20445;-67
2021/12/16 06:09:38;;;;;;;8.03;5.77;;;;;;;;;;5077418;28;20471;-67
2021/12/16 06:12:08;;;;;;;8.00;5.17;;;;;;;;;;5077657;28;20440;-67
2021/12/16 06:14:55;;;;;;;8.10;5.23;;;;;;;;;;5101097;28;20475;-67
2021/12/16 06:28:30;;;;;;;11.87;6.37;;;;;;;;;;5100710;28;20462;-67
2021/12/16 06:30:58;;;;;;;9.17;5.57;;;;;;;;;;5081298;28;20454;-66
2021/12/16 06:33:26;;;;;;;8.43;6.20;;;;;;;;;;5080658;28;20444;-67
2021/12/16 06:35:55;;;;;;;8.00;5.73;;;;;;;;;;5080697;28;20436;-67
2021/12/16 06:38:24;;;;;;;10.17;7.07;;;;;;;;;;5081959;28;20558;-67
2021/12/16 06:40:55;;;;;;;8.77;5.87;;;;;;;;;;5100662;28;20500;-66
2021/12/16 06:43:23;;;;;;;7.07;5.10;;;;;;;;;;5100923;28;20481;-66
2021/12/16 06:45:55;;;;;;;10.20;6.43;;;;;;;;;;5100791;28;21048;-68
2021/12/16 06:48:28;;;;;;;10.40;6.30;;;;;;;;;;5096357;28;20476;-66
2021/12/16 06:50:59;;;;;;;11.50;6.73;;;;;;;;;;5080793;28;20449;-67
2021/12/16 06:53:32;;;;;;;11.87;6.27;;;;;;;;;;5080475;28;20880;-64
2021/12/16 06:56:08;;;;;;;9.63;6.33;;;;;;;;;;5080239;28;20440;-64
2021/12/16 06:58:41;;;;;;;10.00;6.23;;;;;;;;;;5083509;28;20483;-65
2021/12/16 07:01:18;;;;;;;10.23;5.83;;;;;;;;;;5089300;28;20435;-64
2021/12/16 07:03:47;;;;;;;7.80;6.17;;;;;;;;;;5080272;28;20455;-64
2021/12/16 07:06:18;;;;;;;8.57;6.10;;;;;;;;;;5083901;28;20473;-64
2021/12/16 07:08:47;;;;;;;10.40;5.87;;;;;;;;;;5080015;28;20515;-65
2021/12/16 07:11:15;;;;;;;12.00;6.87;;;;;;;;;;5079902;28;20476;-64
2021/12/16 07:13:55;;;;;;;9.43;6.43;;;;;;;;;;5083410;28;20451;-64
2021/12/16 07:16:25;;;;;;;10.10;6.77;;;;;;;;;;5080647;28;20444;-64
2021/12/16 07:18:54;;;;;;;13.77;6.90;;;;;;;;;;5090335;28;20468;-65
2021/12/16 07:21:23;;;;;;;8.53;5.63;;;;;;;;;;5087518;28;20436;-65
2021/12/16 07:23:52;;;;;;;11.70;6.97;;;;;;;;;;5086240;28;20443;-64
2021/12/16 07:26:20;;;;;;;10.93;6.10;;;;;;;;;;5088080;28;20436;-64
2021/12/16 07:28:48;;;;;;;9.10;6.20;;;;;;;;;;5091576;28;20476;-64
2021/12/16 07:31:17;;;;;;;10.97;6.87;;;;;;;;;;5090129;28;20803;-64
2021/12/16 07:33:46;;;;;;;9.23;5.93;;;;;;;;;;5083644;28;20807;-65
2021/12/16 07:36:18;;;;;;;9.70;6.17;;;;;;;;;;5079634;28;20483;-64
2021/12/16 07:38:46;;;;;;;10.23;6.77;;;;;;;;;;5083512;28;21079;-64
2021/12/16 07:41:20;;;;;;;8.70;5.90;;;;;;;;;;5092766;28;20431;-65
2021/12/16 07:44:09;;;;;;;6.93;5.40;;;;;;;;;;5083075;28;20444;-64
2021/12/16 07:46:37;;;;;;;10.37;6.20;;;;;;;;;;5079922;28;20920;-65
2021/12/16 07:49:08;;;;;;;8.83;6.27;;;;;;;;;;5092964;28;20459;-67
2021/12/16 07:51:36;;;;;;;8.70;5.70;;;;;;;;;;5079373;28;20441;-67
2021/12/16 07:54:04;;;;;;;8.63;6.07;;;;;;;;;;5087677;28;20450;-67
2021/12/16 07:56:32;;;;;;;7.43;5.63;;;;;;;;;;5078907;28;20437;-67
2021/12/16 07:59:00;;;;;;;8.00;5.37;;;;;;;;;;5079190;28;20555;-67
2021/12/16 08:01:29;;;;;;;8.37;5.00;;;;;;;;;;5082624;28;20446;-67
2021/12/16 08:03:56;;;;;;;10.23;6.57;;;;;;;;;;5091218;28;20447;-67
2021/12/16 08:06:28;;;;;;;7.47;5.33;;;;;;;;;;5095973;28;20440;-67
2021/12/16 08:08:59;;;;;;;7.77;5.33;;;;;;;;;;5081436;28;20959;-67
2021/12/16 08:11:28;;;;;;;9.67;5.93;;;;;;;;;;5078622;28;20810;-67
2021/12/16 08:14:02;;;;;;;8.03;5.27;;;;;;;;;;5087800;28;20444;-66
2021/12/16 08:16:30;;;;;;;6.97;4.90;;;;;;;;;;5078680;28;20484;-67
2021/12/16 08:18:58;;;;;;;7.77;5.57;;;;;;;;;;5078469;28;20805;-67
2021/12/16 08:21:29;;;;;;;7.13;5.53;;;;;;;;;;5078556;28;20456;-67
2021/12/16 08:23:58;;;;;;;7.20;5.50;;;;;;;;;;5078521;28;20473;-66
2021/12/16 08:26:26;;;;;;;9.17;5.90;;;;;;;;;;5078302;28;20440;-66
2021/12/16 08:28:54;;;;;;;10.77;5.40;;;;;;;;;;5078655;28;20488;-67
2021/12/16 08:31:23;;;;;;;7.40;5.10;;;;;;;;;;5080588;28;20445;-67
2021/12/16 08:33:51;;;;;;;8.07;5.10;;;;;;;;;;5078758;28;20441;-67
2021/12/16 08:36:20;;;;;;;8.77;5.33;;;;;;;;;;5078293;28;20548;-68
2021/12/16 08:38:49;;;;;;;8.17;5.17;;;;;;;;;;5091423;28;20468;-67
2021/12/16 08:41:21;;;;;;;8.13;5.07;;;;;;;;;;5078190;28;20448;-67
2021/12/16 08:43:49;;;;;;;9.67;5.87;;;;;;;;;;5085178;28;20443;-67
2021/12/16 08:46:19;;;;;;;8.87;5.77;;;;;;;;;;5097633;28;20789;-67
2021/12/16 08:48:48;;;;;;;12.10;6.67;;;;;;;;;;5090022;28;20550;-67
2021/12/16 08:51:17;;;;;;;10.50;5.70;;;;;;;;;;5088642;28;20868;-68
2021/12/16 08:53:45;;;;;;;10.83;6.53;;;;;;;;;;5091241;28;20431;-67
2021/12/16 08:56:14;;;;;;;10.17;6.37;;;;;;;;;;5088154;28;20884;-67
2021/12/16 08:58:43;;;;;;;11.53;6.50;;;;;;;;;;5090116;28;20463;-67
2021/12/16 09:01:13;;;;;;;10.77;6.57;;;;;;;;;;5088620;28;20454;-67
2021/12/16 09:03:41;;;;;;;10.07;7.77;;;;;;;;;;5088429;28;20807;-67
2021/12/16 09:06:09;;;;;;;12.27;7.80;;;;;;;;;;5088682;28;20477;-68
2021/12/16 09:08:38;;;;;;;10.43;6.20;;;;;;;;;;5088698;28;20534;-67
2021/12/16 09:11:08;;;;;;;11.97;7.60;;;;;;;;;;5089974;28;20438;-67
2021/12/16 09:13:40;;;;;;;15.30;8.33;;;;;;;;;;5089178;28;20440;-67
2021/12/16 09:16:09;;;;;;;12.07;7.83;;;;;;;;;;5096026;28;20843;-68
2021/12/16 09:18:41;;;;;;;11.40;6.93;;;;;;;;;;5098105;28;20463;-67
2021/12/16 09:21:10;;;;;;;9.57;6.60;;;;;;;;;;5090665;28;20440;-67
2021/12/16 09:23:40;;;;;;;11.37;6.87;;;;;;;;;;5088431;28;20440;-67
2021/12/16 09:26:09;;;;;;;12.47;7.23;;;;;;;;;;5085845;28;20442;-67
2021/12/16 09:28:38;;;;;;;11.27;6.53;;;;;;;;;;5087929;28;20455;-67
2021/12/16 09:31:10;;;;;;;9.27;6.67;;;;;;;;;;5086613;28;20440;-66
2021/12/16 09:33:41;;;;;;;7.93;6.07;;;;;;;;;;5083894;28;20939;-67
2021/12/16 09:36:10;;;;;;;8.90;5.97;;;;;;;;;;5089052;28;20476;-67
2021/12/16 09:38:38;;;;;;;10.30;7.37;;;;;;;;;;5090965;28;20543;-67
2021/12/16 09:41:07;;;;;;;10.43;6.80;;;;;;;;;;5089624;28;20444;-68
2021/12/16 09:43:41;;;;;;;12.80;6.97;;;;;;;;;;5088703;28;20447;-68
2021/12/16 09:46:12;;;;;;;10.07;7.20;;;;;;;;;;5082198;28;20440;-69
2021/12/16 09:48:41;;;;;;;9.63;5.50;;;;;;;;;;5088062;28;20473;-69
2021/12/16 09:51:13;;;;;;;11.60;6.30;;;;;;;;;;5090511;28;20476;-69
2021/12/16 09:53:41;;;;;;;11.13;7.47;;;;;;;;;;5077433;28;20448;-69
2021/12/16 09:56:09;;;;;;;11.87;7.67;;;;;;;;;;5076692;28;20820;-69
2021/12/16 09:58:40;;;;;;;10.37;7.33;;;;;;;;;;5079465;28;20962;-69
2021/12/16 10:01:10;;;;;;;11.57;7.17;;;;;;;;;;5090840;28;20448;-69
2021/12/16 10:03:40;;;;;;;9.87;6.80;;;;;;;;;;5088015;28;20468;-69
2021/12/16 10:06:09;;;;;;;7.77;6.13;;;;;;;;;;5088682;28;20447;-69
2021/12/16 10:08:37;;;;;;;10.07;6.87;;;;;;;;;;5086204;28;20464;-69
2021/12/16 10:11:05;;;;;;;9.80;6.30;;;;;;;;;;5088506;28;20474;-69
2021/12/16 10:13:41;;;;;;;13.33;6.60;;;;;;;;;;5090455;28;20441;-69
2021/12/16 10:18:56;;;;;;;14.27;7.20;;;;;;;;;;5087721;28;20515;-69
2021/12/16 10:21:25;;;;;;;11.30;6.63;;;;;;;;;;5087661;28;20436;-69
2021/12/16 10:23:53;;;;;;;12.30;6.80;;;;;;;;;;5087806;28;21754;-69
2021/12/16 10:26:23;;;;;;;9.97;7.27;;;;;;;;;;5087752;28;20436;-68
2021/12/16 10:28:52;;;;;;;10.27;6.20;;;;;;;;;;5090717;28;20464;-68
2021/12/16 10:31:21;;;;;;;9.47;6.57;;;;;;;;;;5091136;28;20478;-69
2021/12/16 10:33:50;;;;;;;9.60;5.33;;;;;;;;;;5079384;28;20455;-68
2021/12/16 10:36:21;;;;;;;9.43;7.13;;;;;;;;;;5076491;28;20991;-69
2021/12/16 10:38:50;;;;;;;10.47;6.27;;;;;;;;;;5091575;28;20473;-69
2021/12/16 10:41:21;;;;;;;9.37;6.67;;;;;;;;;;5096207;28;20447;-69
2021/12/16 10:43:50;;;;;;;10.60;6.03;;;;;;;;;;5096506;28;20615;-69
2021/12/16 10:46:19;;;;;;;8.70;6.10;;;;;;;;;;5096589;28;20464;-69
2021/12/16 10:48:48;;;;;;;10.13;5.77;;;;;;;;;;5088688;28;20877;-68
2021/12/16 10:51:19;;;;;;;11.87;7.60;;;;;;;;;;5096447;28;20823;-69
2021/12/16 10:54:02;;;;;;;12.33;6.37;;;;;;;;;;5096194;28;20439;-69
2021/12/16 10:56:34;;;;;;;10.67;7.10;;;;;;;;;;5096453;28;20481;-69
2021/12/16 10:59:03;;;;;;;10.33;6.77;;;;;;;;;;5096974;28;20458;-69
2021/12/16 11:01:32;;;;;;;9.40;6.67;;;;;;;;;;5096985;28;20444;-66
2021/12/16 11:04:00;;;;;;;11.93;7.00;;;;;;;;;;5094019;28;20445;-69
2021/12/16 11:06:29;;;;;;;12.80;7.30;;;;;;;;;;5088776;28;20455;-69
2021/12/16 11:09:12;;;;;;;7.97;5.83;;;;;;;;;;5084755;28;20460;-69
2021/12/16 11:11:41;;;;;;;11.27;7.03;;;;;;;;;;5079564;28;20486;-69
2021/12/16 11:14:09;;;;;;;10.77;6.90;;;;;;;;;;5083679;28;20436;-69
2021/12/16 11:16:37;;;;;;;12.53;7.73;;;;;;;;;;5079805;28;21001;-69
2021/12/16 11:19:06;;;;;;;15.47;7.97;;;;;;;;;;5080041;28;20466;-69
2021/12/16 11:21:40;;;;;;;14.80;7.90;;;;;;;;;;5080007;28;20451;-69
2021/12/16 11:24:22;;;;;;;14.50;6.40;;;;;;;;;;5079919;28;20440;-69
2021/12/16 11:26:52;;;;;;;16.50;7.57;;;;;;;;;;5083943;28;20523;-69
2021/12/16 11:29:22;;;;;;;12.27;6.30;;;;;;;;;;5091832;28;20464;-69
2021/12/16 11:31:52;;;;;;;10.00;5.93;;;;;;;;;;5079878;28;20448;-69
2021/12/16 11:34:20;;;;;;;11.27;7.00;;;;;;;;;;5079778;28;20441;-69
2021/12/16 11:36:53;;;;;;;9.13;6.10;;;;;;;;;;5079841;28;20519;-69
2021/12/16 11:39:23;;;;;;;9.30;6.50;;;;;;;;;;5081629;28;20542;-69
2021/12/16 11:41:54;;;;;;;9.40;6.57;;;;;;;;;;5078248;28;20487;-69
2021/12/16 11:44:24;;;;;;;8.47;6.00;;;;;;;;;;5085970;28;20874;-69
2021/12/16 11:46:53;;;;;;;9.57;5.97;;;;;;;;;;5099286;28;20522;-69
2021/12/16 11:49:23;;;;;;;10.30;6.50;;;;;;;;;;5091215;28;20850;-69
2021/12/16 11:51:56;;;;;;;6.80;5.30;;;;;;;;;;5085599;28;21034;-68
2021/12/16 11:54:26;;;;;;;10.97;6.60;;;;;;;;;;5088211;28;20435;-68
2021/12/16 11:56:59;;;;;;;7.90;6.23;;;;;;;;;;5088387;28;20463;-68
2021/12/16 11:59:29;;;;;;;8.13;5.87;;;;;;;;;;5092195;28;20483;-69
2021/12/16 12:01:57;;;;;;;10.20;6.33;;;;;;;;;;5090155;28;20507;-68
2021/12/16 12:04:27;;;;;;;7.33;5.43;;;;;;;;;;5088362;28;20935;-68
2021/12/16 12:06:55;;;;;;;7.63;5.80;;;;;;;;;;5092864;28;20524;-69
2021/12/16 12:09:33;;;;;;;9.60;6.90;;;;;;;;;;5081376;28;20465;-66
2021/12/16 12:12:03;;;;;;;9.33;6.30;;;;;;;;;;5077138;28;20487;-67
2021/12/16 12:14:32;;;;;;;11.87;7.53;;;;;;;;;;5076961;28;20441;-68
2021/12/16 12:17:04;;;;;;;7.33;5.87;;;;;;;;;;5076902;28;21179;-69
2021/12/16 12:19:32;;;;;;;10.07;6.10;;;;;;;;;;5084264;28;20470;-69
2021/12/16 12:22:01;;;;;;;12.43;6.73;;;;;;;;;;5097731;28;20440;-69
2021/12/16 12:24:32;;;;;;;8.97;6.20;;;;;;;;;;5098189;28;20484;-69
2021/12/16 12:27:01;;;;;;;13.73;7.63;;;;;;;;;;5092979;28;20440;-71
2021/12/16 12:29:32;;;;;;;12.07;6.80;;;;;;;;;;5086973;28;20518;-69
2021/12/16 12:32:02;;;;;;;8.23;6.20;;;;;;;;;;5078450;28;20885;-69
2021/12/16 12:34:31;;;;;;;8.10;6.03;;;;;;;;;;5078816;28;20452;-69
2021/12/16 12:37:01;;;;;;;10.10;6.27;;;;;;;;;;5078186;28;20488;-69
2021/12/16 12:39:31;;;;;;;12.50;6.40;;;;;;;;;;5078496;28;20472;-69
2021/12/16 12:41:59;;;;;;;10.50;5.73;;;;;;;;;;5078414;28;20531;-70
2021/12/16 12:44:27;;;;;;;11.40;5.90;;;;;;;;;;5078117;28;20440;-69
2021/12/16 12:47:00;;;;;;;8.83;5.80;;;;;;;;;;5078961;28;20528;-69
2021/12/16 12:49:30;;;;;;;9.47;6.63;;;;;;;;;;5090036;28;20458;-68
2021/12/16 12:52:03;;;;;;;9.57;5.70;;;;;;;;;;5088886;28;21002;-68
2021/12/16 12:54:32;;;;;;;9.80;6.33;;;;;;;;;;5088599;28;20435;-68
2021/12/16 12:57:01;;;;;;;10.83;7.73;;;;;;;;;;5091472;28;20479;-68
2021/12/16 12:59:36;;;;;;;13.80;7.43;;;;;;;;;;5094842;28;20872;-68
2021/12/16 13:02:14;;;;;;;11.37;6.50;;;;;;;;;;5081643;28;20440;-68
2021/12/16 13:04:47;;;;;;;7.93;5.50;;;;;;;;;;5077852;28;21045;-68
2021/12/16 13:07:15;;;;;;;8.53;5.67;;;;;;;;;;5090786;28;20486;-68
2021/12/16 13:09:45;;;;;;;8.10;5.60;;;;;;;;;;5097812;28;20473;-68
2021/12/16 13:12:36;;;;;;;8.27;6.43;;;;;;;;;;5097911;28;20802;-68
2021/12/16 13:15:20;;;;;;;11.97;6.30;;;;;;;;;;5097874;28;21020;-68
2021/12/16 13:23:36;;;;;;;10.67;5.33;;;;;;;;;;5087698;28;20467;-68
2021/12/16 13:26:32;;;;;;;8.57;6.07;;;;;;;;;;5089614;28;20489;-68
2021/12/16 13:29:07;;;;;;;11.30;6.57;;;;;;;;;;5090970;28;20461;-69
2021/12/16 13:31:46;;;;;;;8.90;5.27;;;;;;;;;;5089705;28;20461;-68
2021/12/16 13:34:27;;;;;;;12.30;6.67;;;;;;;;;;5088379;28;20434;-68
2021/12/16 13:36:57;;;;;;;8.20;5.90;;;;;;;;;;5088081;28;20853;-68
2021/12/16 13:39:26;;;;;;;11.17;5.60;;;;;;;;;;5086575;28;20871;-68
2021/12/16 13:41:57;;;;;;;10.70;5.73;;;;;;;;;;5088809;28;20463;-68
2021/12/16 13:44:45;;;;;;;9.30;5.77;;;;;;;;;;5087615;28;20966;-68
2021/12/16 13:47:24;;;;;;;9.13;5.90;;;;;;;;;;5087872;28;20856;-70
2021/12/16 13:59:22;;;;;;;10.13;6.17;;;;;;;;;;5089638;28;20503;-69
2021/12/16 14:01:52;;;;;;;8.27;5.47;;;;;;;;;;5089861;28;20436;-69
2021/12/16 14:07:39;;;;;;;10.13;6.03;;;;;;;;;;5159310;27;21140;-68
2021/12/16 14:10:14;;;;;;;10.20;6.70;;;;;;;;;;5114711;28;20784;-67
2021/12/16 14:15:57;;;;;;;7.67;5.50;;;;;;;;;;5115630;27;20466;-67
2021/12/16 14:24:17;;;;;;;10.97;6.60;;;;;;;;;;5114923;28;20454;-67
2021/12/16 14:26:54;;;;;;;9.37;5.77;;;;;;;;;;5114536;28;20562;-67
2021/12/16 14:35:03;;;;;;;11.53;7.10;;;;;;;;;;5099628;27;20490;-68
2021/12/16 14:37:46;;;;;;;11.27;7.27;;;;;;;;;;5116362;28;20461;-70
2021/12/16 14:40:37;;;;;;;12.30;7.17;;;;;;;;;;5122809;28;20430;-70
2021/12/16 14:43:18;;;;;;;13.57;8.37;;;;;;;;;;5118185;28;20481;-69
2021/12/16 14:45:54;;;;;;;13.33;8.03;;;;;;;;;;5113455;28;20478;-70
2021/12/16 14:48:26;;;;;;;12.97;7.77;;;;;;;;;;5112269;28;20451;-71
2021/12/16 14:50:59;;;;;;;10.20;7.60;;;;;;;;;;5111664;28;20450;-70
2021/12/16 14:53:31;;;;;;;14.50;9.10;;;;;;;;;;5114244;28;20332;-69
2021/12/16 14:56:02;;;;;;;11.93;7.53;;;;;;;;;;5113887;28;20966;-68
2021/12/16 14:58:30;;;;;;;14.13;8.17;;;;;;;;;;5111377;28;20455;-71
2021/12/16 15:01:00;;;;;;;11.80;7.57;;;;;;;;;;5110969;28;20423;-70
2021/12/16 15:03:32;;;;;;;16.20;8.37;;;;;;;;;;5113792;28;20641;-70
2021/12/16 15:06:01;;;;;;;14.87;8.93;;;;;;;;;;5112249;28;20493;-71
2021/12/16 15:08:35;;;;;;;12.37;7.97;;;;;;;;;;5113719;28;20461;-70
2021/12/16 15:11:06;;;;;;;11.30;8.37;;;;;;;;;;5111502;28;20439;-71
2021/12/16 15:13:40;;;;;;;14.73;7.93;;;;;;;;;;5113476;28;20496;-70
2021/12/16 15:16:30;;;;;;;14.33;9.20;;;;;;;;;;5113440;28;20435;-69
2021/12/16 15:43:56;;;;;;;12.67;7.90;;;;;;;;;;5097450;28;20450;-69
2021/12/16 15:46:27;;;;;;;11.40;6.60;;;;;;;;;;5098904;28;20487;-69
2021/12/16 15:48:58;;;;;;;10.70;7.30;;;;;;;;;;5099173;28;20933;-69
2021/12/16 15:51:26;;;;;;;12.00;7.50;;;;;;;;;;5098166;28;20428;-69
2021/12/16 15:53:58;;;;;;;12.93;8.53;;;;;;;;;;5097805;28;20443;-69
2021/12/16 15:56:28;;;;;;;10.57;7.43;;;;;;;;;;5096333;28;20442;-69
2021/12/16 15:58:58;;;;;;;11.80;8.47;;;;;;;;;;5099235;28;20456;-69
2021/12/16 16:01:29;;;;;;;12.13;8.50;;;;;;;;;;5098460;28;20885;-69
2021/12/16 16:03:58;;;;;;;10.43;7.37;;;;;;;;;;5107617;28;20440;-69
2021/12/16 16:06:27;;;;;;;11.97;8.50;;;;;;;;;;5112649;28;20517;-69
2021/12/16 16:08:56;;;;;;;11.47;8.33;;;;;;;;;;5107478;28;20963;-69
2021/12/16 16:11:26;;;;;;;14.50;8.00;;;;;;;;;;5105405;28;20890;-68
2021/12/16 16:13:58;;;;;;;15.13;7.97;;;;;;;;;;5107435;28;20930;-69
2021/12/16 16:16:31;;;;;;;11.50;7.63;;;;;;;;;;5104055;28;20444;-68
2021/12/16 16:19:03;;;;;;;12.73;7.87;;;;;;;;;;5099031;28;20466;-69
2021/12/16 16:21:32;;;;;;;10.90;8.07;;;;;;;;;;5098977;28;20527;-69
2021/12/16 16:24:01;;;;;;;12.80;7.43;;;;;;;;;;5098693;28;20443;-69
2021/12/16 16:26:35;;;;;;;11.90;7.90;;;;;;;;;;5098793;28;20478;-69
2021/12/16 16:29:06;;;;;;;11.90;8.00;;;;;;;;;;5103699;28;20465;-70
2021/12/16 16:31:36;;;;;;;12.43;7.40;;;;;;;;;;5105850;28;20446;-69
2021/12/16 16:34:09;;;;;;;16.33;8.80;;;;;;;;;;5107258;28;20766;-69
2021/12/16 16:36:40;;;;;;;15.83;8.43;;;;;;;;;;5105565;28;20488;-69
2021/12/16 16:39:11;;;;;;;13.07;8.23;;;;;;;;;;5104584;28;20457;-68
2021/12/16 16:41:40;;;;;;;12.13;8.30;;;;;;;;;;5098945;28;20443;-68
2021/12/16 16:44:11;;;;;;;14.97;8.93;;;;;;;;;;5097133;28;20440;-69
2021/12/16 16:46:46;;;;;;;14.43;9.13;;;;;;;;;;5095062;28;20493;-67
2021/12/16 16:49:24;;;;;;;15.43;10.63;;;;;;;;;;5094411;28;20451;-69
2021/12/16 16:51:53;;;;;;;19.03;12.33;;;;;;;;;;5096918;28;20454;-69
2021/12/16 16:54:31;;;;;;;24.60;13.03;;;;;;;;;;5100139;28;20435;-66
2021/12/16 16:57:01;;;;;;;17.40;12.03;;;;;;;;;;5100178;28;20776;-70
2021/12/16 16:59:31;;;;;;;18.13;12.50;;;;;;;;;;5109406;28;20474;-69
2021/12/16 17:02:02;;;;;;;17.07;11.50;;;;;;;;;;5107705;28;20455;-70
2021/12/16 17:04:33;;;;;;;17.00;10.70;;;;;;;;;;5098181;28;20872;-69
2021/12/16 17:07:02;;;;;;;18.23;11.03;;;;;;;;;;5097639;28;20492;-71
2021/12/16 17:09:32;;;;;;;15.50;9.90;;;;;;;;;;5098004;28;20463;-69
2021/12/16 17:12:00;;;;;;;15.10;9.27;;;;;;;;;;5098133;28;20443;-70
2021/12/16 17:14:36;;;;;;;13.70;9.63;;;;;;;;;;5097990;28;20539;-70
2021/12/16 17:17:13;;;;;;;15.63;8.60;;;;;;;;;;5098172;28;20529;-70
2021/12/16 17:19:42;;;;;;;10.30;7.67;;;;;;;;;;5098007;28;20468;-71
2021/12/16 17:22:12;;;;;;;21.03;11.50;;;;;;;;;;5097805;28;20443;-70
2021/12/16 17:24:44;;;;;;;18.80;11.73;;;;;;;;;;5097816;28;20443;-70
2021/12/16 17:27:13;;;;;;;17.13;10.90;;;;;;;;;;5097173;28;20518;-71
2021/12/16 17:29:43;;;;;;;12.40;7.80;;;;;;;;;;5097783;28;20455;-70
2021/12/16 17:32:15;;;;;;;12.23;7.97;;;;;;;;;;5097823;28;20440;-70
2021/12/16 17:34:44;;;;;;;11.77;7.70;;;;;;;;;;5097585;28;20898;-71
2021/12/16 17:37:15;;;;;;;10.07;6.97;;;;;;;;;;5097869;28;20439;-71
2021/12/16 17:39:44;;;;;;;12.80;7.20;;;;;;;;;;5097297;28;20463;-71
2021/12/16 17:42:14;;;;;;;12.60;8.80;;;;;;;;;;5097592;28;20450;-70
2021/12/16 17:44:43;;;;;;;11.80;7.77;;;;;;;;;;5097931;28;20457;-70